Clarkrange, Tennessee
Current Conditions -  °F | °C
As of 12:53 PM on Tuesday 27 Jan 2015 (Local Time) from KCSV Reporting Station
Overcast Overcast  
Wind Chill: 26°   Ceiling: 1100
Heat Index: 33°   Visibility: 10mi
Dew Point: 28°   Wind: 8mph
Humidity: 82%   Direction: 320°NW
Pressure: 29.99"   Gusts: NA
Location:  36.18°N, 85.02°W
Report Text: KCSV 271853Z AUTO 32007KT 10SM OVC011 01/M02 A2999 RMK AO2 SLP166 T00061022
Loading
Personal Weather Stations






























Interactive Weather Map New forecast layout! Learn more

10-Day Weather Forecast

Advertisements
Track Severe Weather on mobile